sensor_id;sensor_type;location;lat;lon;timestamp;P1;P2;P0
58740;PMS7003;44512;53.046;18.604;2023-04-24T00:04:41;21;20;14
58740;PMS7003;44512;53.046;18.604;2023-04-24T00:15:09;25;18;14
58740;PMS7003;44512;53.046;18.604;2023-04-24T00:25:37;22;19;15
58740;PMS7003;44512;53.046;18.604;2023-04-24T00:36:06;21;18;14
58740;PMS7003;44512;53.046;18.604;2023-04-24T00:46:34;22;19;15
58740;PMS7003;44512;53.046;18.604;2023-04-24T00:57:03;23;22;16
58740;PMS7003;44512;53.046;18.604;2023-04-24T01:07:31;24;21;15
58740;PMS7003;44512;53.046;18.604;2023-04-24T01:17:59;20;18;14
58740;PMS7003;44512;53.046;18.604;2023-04-24T01:28:28;23;21;16
58740;PMS7003;44512;53.046;18.604;2023-04-24T01:38:56;25;22;16
58740;PMS7003;44512;53.046;18.604;2023-04-24T01:49:24;25;24;18
58740;PMS7003;44512;53.046;18.604;2023-04-24T01:59:53;26;24;18
58740;PMS7003;44512;53.046;18.604;2023-04-24T02:10:21;26;22;17
58740;PMS7003;44512;53.046;18.604;2023-04-24T02:20:50;30;24;18
58740;PMS7003;44512;53.046;18.604;2023-04-24T02:31:18;27;25;18
58740;PMS7003;44512;53.046;18.604;2023-04-24T02:41:46;24;21;16
58740;PMS7003;44512;53.046;18.604;2023-04-24T02:52:15;22;20;16
58740;PMS7003;44512;53.046;18.604;2023-04-24T03:02:43;26;23;17
58740;PMS7003;44512;53.046;18.604;2023-04-24T03:13:12;28;23;18
58740;PMS7003;44512;53.046;18.604;2023-04-24T03:23:40;27;23;16
58740;PMS7003;44512;53.046;18.604;2023-04-24T03:34:08;25;22;17
58740;PMS7003;44512;53.046;18.604;2023-04-24T03:44:37;27;25;19
58740;PMS7003;44512;53.046;18.604;2023-04-24T03:55:05;34;28;19
58740;PMS7003;44512;53.046;18.604;2023-04-24T04:05:33;27;25;18
58740;PMS7003;44512;53.046;18.604;2023-04-24T04:16:02;28;25;19
58740;PMS7003;44512;53.046;18.604;2023-04-24T04:26:30;29;26;18
58740;PMS7003;44512;53.046;18.604;2023-04-24T04:36:58;26;23;18
58740;PMS7003;44512;53.046;18.604;2023-04-24T04:47:27;27;23;18
58740;PMS7003;44512;53.046;18.604;2023-04-24T04:57:55;27;24;18
58740;PMS7003;44512;53.046;18.604;2023-04-24T05:08:24;28;27;19
58740;PMS7003;44512;53.046;18.604;2023-04-24T05:18:52;31;26;19
58740;PMS7003;44512;53.046;18.604;2023-04-24T05:29:20;28;26;19
58740;PMS7003;44512;53.046;18.604;2023-04-24T05:39:49;26;25;18
58740;PMS7003;44512;53.046;18.604;2023-04-24T05:50:17;20;16;11
58740;PMS7003;44512;53.046;18.604;2023-04-24T06:00:45;27;22;17
58740;PMS7003;44512;53.046;18.604;2023-04-24T06:11:14;27;25;17
58740;PMS7003;44512;53.046;18.604;2023-04-24T06:21:42;26;23;18
58740;PMS7003;44512;53.046;18.604;2023-04-24T06:32:11;27;26;19
58740;PMS7003;44512;53.046;18.604;2023-04-24T06:42:39;22;21;15
58740;PMS7003;44512;53.046;18.604;2023-04-24T06:53:07;14;11;7
58740;PMS7003;44512;53.046;18.604;2023-04-24T07:03:36;18;16;12
58740;PMS7003;44512;53.046;18.604;2023-04-24T07:14:04;16;14;10
58740;PMS7003;44512;53.046;18.604;2023-04-24T07:24:32;17;14;12
58740;PMS7003;44512;53.046;18.604;2023-04-24T07:35:01;18;15;11
58740;PMS7003;44512;53.046;18.604;2023-04-24T07:45:29;15;13;10
58740;PMS7003;44512;53.046;18.604;2023-04-24T07:55:58;14;12;10
58740;PMS7003;44512;53.046;18.604;2023-04-24T08:06:26;13;12;9
58740;PMS7003;44512;53.046;18.604;2023-04-24T08:16:54;11;11;10
58740;PMS7003;44512;53.046;18.604;2023-04-24T08:27:23;12;8;7
58740;PMS7003;44512;53.046;18.604;2023-04-24T08:37:52;11;9;9
58740;PMS7003;44512;53.046;18.604;2023-04-24T08:48:19;9;8;6
58740;PMS7003;44512;53.046;18.604;2023-04-24T08:58:48;8;7;5
58740;PMS7003;44512;53.046;18.604;2023-04-24T09:09:16;11;9;7
58740;PMS7003;44512;53.046;18.604;2023-04-24T09:19:44;6;6;5
58740;PMS7003;44512;53.046;18.604;2023-04-24T09:30:13;7;6;6
58740;PMS7003;44512;53.046;18.604;2023-04-24T09:40:41;12;10;8
58740;PMS7003;44512;53.046;18.604;2023-04-24T09:51:09;14;12;10
58740;PMS7003;44512;53.046;18.604;2023-04-24T10:01:38;16;15;12
58740;PMS7003;44512;53.046;18.604;2023-04-24T10:12:06;11;10;9
58740;PMS7003;44512;53.046;18.604;2023-04-24T10:22:34;13;13;9
58740;PMS7003;44512;53.046;18.604;2023-04-24T10:33:03;14;10;9
58740;PMS7003;44512;53.046;18.604;2023-04-24T10:43:31;15;12;9
58740;PMS7003;44512;53.046;18.604;2023-04-24T10:54:00;15;13;11
58740;PMS7003;44512;53.046;18.604;2023-04-24T11:04:29;18;15;12
58740;PMS7003;44512;53.046;18.604;2023-04-24T11:15:00;16;14;11
58740;PMS7003;44512;53.046;18.604;2023-04-24T11:25:25;18;16;12
58740;PMS7003;44512;53.046;18.604;2023-04-24T11:35:53;14;12;10
58740;PMS7003;44512;53.046;18.604;2023-04-24T11:46:21;15;15;11
58740;PMS7003;44512;53.046;18.604;2023-04-24T11:56:50;15;15;11
58740;PMS7003;44512;53.046;18.604;2023-04-24T12:07:18;17;14;11
58740;PMS7003;44512;53.046;18.604;2023-04-24T12:17:47;12;11;9
58740;PMS7003;44512;53.046;18.604;2023-04-24T12:28:15;17;14;11
58740;PMS7003;44512;53.046;18.604;2023-04-24T12:38:43;12;11;9
58740;PMS7003;44512;53.046;18.604;2023-04-24T12:49:12;23;16;12
58740;PMS7003;44512;53.046;18.604;2023-04-24T12:59:40;19;16;13
58740;PMS7003;44512;53.046;18.604;2023-04-24T13:10:09;18;14;11
58740;PMS7003;44512;53.046;18.604;2023-04-24T13:20:37;19;15;12
58740;PMS7003;44512;53.046;18.604;2023-04-24T13:31:05;20;17;13
58740;PMS7003;44512;53.046;18.604;2023-04-24T13:41:33;15;14;11
58740;PMS7003;44512;53.046;18.604;2023-04-24T13:52:02;16;15;12
58740;PMS7003;44512;53.046;18.604;2023-04-24T14:02:30;19;18;14
58740;PMS7003;44512;53.046;18.604;2023-04-24T14:12:58;18;16;12
58740;PMS7003;44512;53.046;18.604;2023-04-24T14:23:27;15;14;11
58740;PMS7003;44512;53.046;18.604;2023-04-24T14:33:55;16;12;10
58740;PMS7003;44512;53.046;18.604;2023-04-24T14:49:39;14;13;10
58740;PMS7003;44512;53.046;18.604;2023-04-24T15:00:08;13;12;10
58740;PMS7003;44512;53.046;18.604;2023-04-24T15:10:36;16;14;11
58740;PMS7003;44512;53.046;18.604;2023-04-24T15:21:04;14;13;11
58740;PMS7003;44512;53.046;18.604;2023-04-24T15:31:32;15;13;10
58740;PMS7003;44512;53.046;18.604;2023-04-24T15:42:01;17;13;11
58740;PMS7003;44512;53.046;18.604;2023-04-24T15:52:29;13;11;9
58740;PMS7003;44512;53.046;18.604;2023-04-24T16:02:57;13;13;10
58740;PMS7003;44512;53.046;18.604;2023-04-24T16:13:26;10;10;8
58740;PMS7003;44512;53.046;18.604;2023-04-24T16:23:54;13;13;11
58740;PMS7003;44512;53.046;18.604;2023-04-24T16:34:22;13;11;9
58740;PMS7003;44512;53.046;18.604;2023-04-24T16:44:51;11;10;9
58740;PMS7003;44512;53.046;18.604;2023-04-24T16:55:19;9;8;7
58740;PMS7003;44512;53.046;18.604;2023-04-24T17:05:48;10;9;8
58740;PMS7003;44512;53.046;18.604;2023-04-24T17:16:16;8;7;6
58740;PMS7003;44512;53.046;18.604;2023-04-24T17:26:44;7;7;7
58740;PMS7003;44512;53.046;18.604;2023-04-24T17:37:12;14;10;7
58740;PMS7003;44512;53.046;18.604;2023-04-24T17:47:41;7;6;5
58740;PMS7003;44512;53.046;18.604;2023-04-24T17:58:09;7;6;5
58740;PMS7003;44512;53.046;18.604;2023-04-24T18:08:37;7;6;5
58740;PMS7003;44512;53.046;18.604;2023-04-24T18:19:06;6;5;5
58740;PMS7003;44512;53.046;18.604;2023-04-24T18:29:34;6;5;4
58740;PMS7003;44512;53.046;18.604;2023-04-24T18:40:03;6;5;4
58740;PMS7003;44512;53.046;18.604;2023-04-24T18:50:31;5;5;5
58740;PMS7003;44512;53.046;18.604;2023-04-24T19:00:59;6;6;5
58740;PMS7003;44512;53.046;18.604;2023-04-24T19:11:28;6;6;4
58740;PMS7003;44512;53.046;18.604;2023-04-24T19:21:56;7;7;6
58740;PMS7003;44512;53.046;18.604;2023-04-24T19:32:24;11;9;7
58740;PMS7003;44512;53.046;18.604;2023-04-24T19:42:53;12;9;8
58740;PMS7003;44512;53.046;18.604;2023-04-24T19:53:21;11;8;8
58740;PMS7003;44512;53.046;18.604;2023-04-24T20:03:49;9;7;6
58740;PMS7003;44512;53.046;18.604;2023-04-24T20:14:18;9;9;7
58740;PMS7003;44512;53.046;18.604;2023-04-24T20:24:46;12;11;8
58740;PMS7003;44512;53.046;18.604;2023-04-24T20:35:14;13;11;8
58740;PMS7003;44512;53.046;18.604;2023-04-24T20:45:43;17;14;11
58740;PMS7003;44512;53.046;18.604;2023-04-24T20:56:11;19;18;13
58740;PMS7003;44512;53.046;18.604;2023-04-24T21:06:39;18;14;11
58740;PMS7003;44512;53.046;18.604;2023-04-24T21:17:08;20;19;15
58740;PMS7003;44512;53.046;18.604;2023-04-24T21:27:36;22;18;15
58740;PMS7003;44512;53.046;18.604;2023-04-24T21:38:05;24;18;14
58740;PMS7003;44512;53.046;18.604;2023-04-24T21:48:33;19;16;12
58740;PMS7003;44512;53.046;18.604;2023-04-24T21:59:01;17;15;12
58740;PMS7003;44512;53.046;18.604;2023-04-24T22:09:30;19;16;12
58740;PMS7003;44512;53.046;18.604;2023-04-24T22:19:58;14;13;10
58740;PMS7003;44512;53.046;18.604;2023-04-24T22:30:26;12;10;8
58740;PMS7003;44512;53.046;18.604;2023-04-24T22:40:55;9;9;6
58740;PMS7003;44512;53.046;18.604;2023-04-24T22:51:23;10;9;7
58740;PMS7003;44512;53.046;18.604;2023-04-24T23:01:51;11;8;6
58740;PMS7003;44512;53.046;18.604;2023-04-24T23:12:20;10;9;7
58740;PMS7003;44512;53.046;18.604;2023-04-24T23:22:48;8;7;6
58740;PMS7003;44512;53.046;18.604;2023-04-24T23:33:17;8;7;5
58740;PMS7003;44512;53.046;18.604;2023-04-24T23:43:45;6;6;4
58740;PMS7003;44512;53.046;18.604;2023-04-24T23:54:13;5;4;4
